Time;durP1;ratioP1;P1;durP2;ratioP2;P2;SDS_P1;SDS_P2;PMS_P1;PMS_P2;Temp;Humidity;BMP_temperature;BMP_pressure;BME280_temperature;BME280_humidity;BME280_pressure;Samples;Min_cycle;Max_cycle;Signal;HPM_P1;HPM_P2
2022/06/15 00:01:00;;;;;;;2.10;0.80;;;;;;;22.03;45.27;101988.44;5104625;28;20026;-64
2022/06/15 00:03:30;;;;;;;1.27;0.90;;;;;;;22.03;45.56;101984.91;5086652;28;20016;-63
2022/06/15 00:06:15;;;;;;;1.05;0.77;;;;;;;22.03;45.58;101987.59;5104454;28;20027;-64
2022/06/15 00:08:43;;;;;;;1.05;0.95;;;;;;;22.01;45.18;101979.66;5106213;28;20080;-64
2022/06/15 00:11:25;;;;;;;1.02;0.70;;;;;;;22.02;45.14;101984.06;5121105;28;20049;-64
2022/06/15 00:13:51;;;;;;;2.58;1.15;;;;;;;22.00;45.26;101985.22;5128538;28;20546;-66
2022/06/15 00:16:17;;;;;;;1.10;0.80;;;;;;;22.01;45.38;101984.22;5128758;28;20031;-65
2022/06/15 00:18:45;;;;;;;1.73;0.80;;;;;;;21.94;45.34;101975.91;5128851;28;20096;-64
2022/06/15 00:21:11;;;;;;;2.28;0.90;;;;;;;21.99;45.54;101983.53;5128293;28;20050;-63
2022/06/15 00:23:37;;;;;;;1.08;0.88;;;;;;;21.98;45.01;101982.69;5126918;28;20024;-64
2022/06/15 00:26:04;;;;;;;1.33;0.90;;;;;;;21.96;45.37;101988.28;5128607;28;20590;-64
2022/06/15 00:28:29;;;;;;;1.10;0.70;;;;;;;21.94;45.21;101979.44;5128802;28;20035;-63
2022/06/15 00:30:55;;;;;;;1.30;1.10;;;;;;;21.94;45.13;101979.44;5128458;28;20027;-63
2022/06/15 00:33:21;;;;;;;2.95;1.10;;;;;;;21.96;45.15;101976.56;5128188;28;20043;-64
2022/06/15 00:35:58;;;;;;;1.83;1.00;;;;;;;21.95;45.35;101977.59;5128136;28;20028;-62
2022/06/15 00:38:33;;;;;;;1.65;1.33;;;;;;;21.88;44.88;101961.16;5112829;28;20028;-63
2022/06/15 00:40:58;;;;;;;2.05;0.90;;;;;;;21.94;44.91;101982.16;5107497;28;20028;-63
2022/06/15 00:43:45;;;;;;;1.67;0.88;;;;;;;21.94;44.97;101974.03;5107065;28;20040;-63
2022/06/15 00:46:25;;;;;;;1.58;1.00;;;;;;;21.94;45.05;101976.75;5107703;28;20366;-64
2022/06/15 00:48:54;;;;;;;2.83;1.00;;;;;;;21.93;44.70;101974.22;5107887;28;20046;-63
2022/06/15 00:51:20;;;;;;;1.70;0.85;;;;;;;21.92;44.91;101976.06;5107245;28;20068;-63
2022/06/15 00:53:46;;;;;;;1.55;0.77;;;;;;;21.92;44.98;101980.63;5089231;28;20016;-63
2022/06/15 00:56:11;;;;;;;0.90;0.90;;;;;;;21.92;44.62;101976.06;5107586;28;20115;-63
2022/06/15 00:58:39;;;;;;;1.27;0.90;;;;;;;21.92;44.83;101973.38;5107556;28;20110;-63
2022/06/15 01:01:05;;;;;;;1.20;0.80;;;;;;;21.92;44.73;101972.53;5089096;28;20093;-63
2022/06/15 01:03:31;;;;;;;1.35;0.95;;;;;;;21.91;44.08;101970.81;5116599;28;20028;-63
2022/06/15 01:06:31;;;;;;;1.60;1.02;;;;;;;21.92;44.23;101975.22;5109681;28;20031;-63
2022/06/15 01:09:02;;;;;;;1.20;0.90;;;;;;;21.91;44.59;101978.91;5101674;28;20035;-64
2022/06/15 01:11:37;;;;;;;1.17;0.90;;;;;;;21.90;44.69;101969.94;5114459;28;20035;-64
2022/06/15 01:14:09;;;;;;;1.58;1.23;;;;;;;21.91;44.21;101976.22;5088933;28;20020;-64
2022/06/15 01:16:59;;;;;;;1.23;0.70;;;;;;;21.84;44.07;101962.50;5089070;28;20051;-64
2022/06/15 01:19:58;;;;;;;1.83;1.10;;;;;;;21.89;43.83;101972.84;5097202;28;20096;-64
2022/06/15 01:22:40;;;;;;;0.68;0.68;;;;;;;21.89;43.72;101970.13;5127136;28;20155;-64
2022/06/15 01:25:34;;;;;;;4.28;1.02;;;;;;;21.87;43.87;101978.38;5127532;28;20031;-63
2022/06/15 01:28:27;;;;;;;1.40;0.80;;;;;;;21.87;43.89;101970.28;5107439;28;20339;-64
2022/06/15 01:31:06;;;;;;;1.38;0.85;;;;;;;21.74;43.51;101950.09;5127371;28;20031;-64
2022/06/15 01:34:17;;;;;;;1.65;1.00;;;;;;;21.85;43.26;101966.91;5109041;28;20053;-63
2022/06/15 01:37:03;;;;;;;1.98;0.88;;;;;;;21.81;43.11;101961.97;5078063;28;20044;-64
2022/06/15 01:39:35;;;;;;;1.80;1.00;;;;;;;21.84;43.46;101965.19;5088709;28;20027;-63
2022/06/15 01:42:08;;;;;;;1.65;1.00;;;;;;;21.83;42.78;101968.91;5088083;28;20043;-64
2022/06/15 01:44:41;;;;;;;2.38;1.13;;;;;;;21.82;42.79;101967.22;5088869;28;20035;-64
2022/06/15 01:47:10;;;;;;;1.67;0.90;;;;;;;21.81;43.29;101962.81;5088589;28;20466;-64
2022/06/15 01:49:40;;;;;;;;;;;;;;;21.82;42.80;101963.66;5088899;28;20502;-63
2022/06/15 01:52:08;;;;;;;2.33;1.23;;;;;;;21.79;43.18;101955.84;5088268;28;19915;-64
2022/06/15 01:54:37;;;;;;;1.25;0.90;;;;;;;21.80;43.08;101963.84;5088032;28;20067;-64
2022/06/15 01:57:04;;;;;;;1.67;1.00;;;;;;;21.79;42.77;101956.72;5106451;28;20073;-64
2022/06/15 01:59:32;;;;;;;2.53;1.00;;;;;;;21.79;43.00;101959.44;5106251;28;20046;-63
2022/06/15 02:02:19;;;;;;;2.05;1.13;;;;;;;21.79;42.25;101950.44;5106323;28;20020;-64
2022/06/15 02:05:15;;;;;;;1.70;1.08;;;;;;;21.78;42.06;101943.34;5106348;28;20079;-64
2022/06/15 02:07:54;;;;;;;1.50;1.17;;;;;;;21.78;42.39;101948.75;5087732;28;20020;-64
2022/06/15 02:10:24;;;;;;;2.05;1.10;;;;;;;21.75;42.26;101943.66;5094046;28;20024;-64
2022/06/15 02:12:54;;;;;;;2.17;1.10;;;;;;;21.75;41.94;101952.66;5107782;28;20027;-64
2022/06/15 02:15:25;;;;;;;2.13;1.30;;;;;;;21.75;41.86;101940.94;5108262;28;20035;-64
2022/06/15 02:17:51;;;;;;;3.10;1.15;;;;;;;21.71;42.15;101945.84;5108733;28;20057;-63
2022/06/15 02:20:20;;;;;;;2.88;1.10;;;;;;;21.73;41.85;101941.13;5108226;28;20083;-64
2022/06/15 02:22:46;;;;;;;2.72;1.05;;;;;;;21.71;41.91;101941.28;5107790;28;20115;-64
2022/06/15 02:25:15;;;;;;;2.15;0.90;;;;;;;21.73;41.71;101934.84;5108163;28;20028;-64
2022/06/15 02:27:40;;;;;;;;;;;;;;;21.71;41.90;101935.03;5126782;28;20030;-64
2022/06/15 02:30:18;;;;;;;1.55;1.13;;;;;;;21.71;42.03;101932.31;5106945;28;19912;-64
2022/06/15 02:32:46;;;;;;;2.20;1.50;;;;;;;21.69;41.98;101932.47;5104969;28;20100;-64
2022/06/15 02:35:13;;;;;;;4.70;2.08;;;;;;;21.61;41.68;101918.06;5105757;28;20481;-63
2022/06/15 02:37:38;;;;;;;2.80;1.40;;;;;;;21.67;41.86;101931.78;5105374;28;20078;-64
2022/06/15 02:40:04;;;;;;;1.98;1.00;;;;;;;21.67;41.99;101929.09;5105845;28;20393;-64
2022/06/15 02:42:32;;;;;;;1.50;1.13;;;;;;;21.66;41.69;101924.69;5105182;28;20044;-64
2022/06/15 02:45:02;;;;;;;2.13;1.00;;;;;;;21.66;41.74;101926.53;5105632;28;20035;-64
2022/06/15 02:47:30;;;;;;;2.60;1.40;;;;;;;21.59;41.93;101917.38;5105414;28;20396;-64
2022/06/15 02:49:56;;;;;;;1.13;0.90;;;;;;;21.66;41.75;101929.22;5105649;28;20045;-64
2022/06/15 02:52:24;;;;;;;2.50;1.05;;;;;;;21.63;41.41;101930.44;5086902;28;20035;-64
2022/06/15 02:54:52;;;;;;;1.87;1.07;;;;;;;21.63;41.50;101924.16;5087388;28;20028;-63
2022/06/15 02:57:18;;;;;;;1.23;1.08;;;;;;;21.63;41.71;101926.88;5105644;28;20327;-64
2022/06/15 02:59:45;;;;;;;2.08;1.30;;;;;;;21.62;41.76;101927.84;5105642;28;20020;-64
2022/06/15 03:02:14;;;;;;;2.15;1.20;;;;;;;21.59;41.59;101915.50;5125747;28;20031;-64
2022/06/15 03:04:40;;;;;;;2.22;1.00;;;;;;;21.60;41.47;101909.09;5125917;28;20041;-64
2022/06/15 03:07:05;;;;;;;1.25;1.00;;;;;;;21.61;41.40;101915.34;5125382;28;20027;-64
2022/06/15 03:09:31;;;;;;;1.52;1.10;;;;;;;21.61;41.66;101918.06;5125928;28;20399;-64
2022/06/15 03:11:56;;;;;;;1.73;1.20;;;;;;;21.59;41.35;101915.50;5105908;28;20032;-64
2022/06/15 03:14:21;;;;;;;2.08;1.20;;;;;;;21.59;41.25;101912.81;5105217;28;20054;-66
2022/06/15 03:16:49;;;;;;;3.53;1.80;;;;;;;21.58;41.54;101911.13;5105399;28;20040;-63
2022/06/15 03:19:14;;;;;;;1.50;1.10;;;;;;;21.56;41.54;101913.13;5105349;28;20028;-64
2022/06/15 03:21:39;;;;;;;1.92;1.10;;;;;;;21.57;41.07;101908.56;5104733;28;20039;-64
2022/06/15 03:24:05;;;;;;;1.65;1.10;;;;;;;21.57;41.21;101916.69;5105112;28;20024;-64
2022/06/15 03:26:31;;;;;;;1.77;1.05;;;;;;;21.54;41.23;101901.63;5105425;28;20035;-63
2022/06/15 03:28:56;;;;;;;1.98;1.15;;;;;;;21.56;41.31;101915.00;5116405;28;20075;-63
2022/06/15 03:31:21;;;;;;;3.58;1.52;;;;;;;21.54;41.18;101909.75;5125551;28;20114;-64
2022/06/15 03:33:46;;;;;;;2.10;1.05;;;;;;;21.55;41.44;101911.44;5125254;28;20031;-64
2022/06/15 03:36:11;;;;;;;1.35;1.10;;;;;;;21.54;41.44;101912.47;5125142;28;20050;-63
2022/06/15 03:38:37;;;;;;;1.65;1.00;;;;;;;21.54;41.37;101906.19;5125673;28;20041;-64
2022/06/15 03:41:02;;;;;;;1.52;1.02;;;;;;;21.53;41.20;101912.59;5125405;28;20023;-64
2022/06/15 03:43:27;;;;;;;1.73;1.15;;;;;;;21.51;41.39;101903.81;5107436;28;20038;-63
2022/06/15 03:45:53;;;;;;;2.42;1.25;;;;;;;21.52;41.43;101914.47;5129411;28;20102;-64
2022/06/15 03:48:18;;;;;;;1.05;0.80;;;;;;;21.51;41.15;101912.78;5129574;28;20020;-64
2022/06/15 03:50:44;;;;;;;1.80;0.90;;;;;;;21.52;41.07;101913.63;5129493;28;20027;-64
2022/06/15 03:53:10;;;;;;;1.88;1.00;;;;;;;21.51;41.32;101911.94;5128617;28;20060;-63
2022/06/15 03:55:36;;;;;;;1.15;0.90;;;;;;;21.50;41.39;101910.25;5129348;28;20023;-64
2022/06/15 03:58:01;;;;;;;3.05;0.90;;;;;;;21.49;40.93;101913.94;5122769;28;20392;-64
2022/06/15 04:00:29;;;;;;;2.65;1.25;;;;;;;21.49;41.14;101913.94;5090387;28;20106;-63
2022/06/15 04:02:55;;;;;;;1.00;0.82;;;;;;;21.48;41.14;101907.66;5108341;28;20052;-63
2022/06/15 04:05:26;;;;;;;1.67;1.00;;;;;;;21.45;41.13;101913.41;5108513;28;20031;-64
2022/06/15 04:10:36;;;;;;;1.90;0.70;;;;;;;21.45;40.94;101924.22;5116654;28;20088;-64
2022/06/15 04:13:02;;;;;;;2.40;1.08;;;;;;;21.45;41.15;101926.94;5128374;28;20082;-64
2022/06/15 04:15:27;;;;;;;1.80;1.00;;;;;;;21.40;41.24;101922.00;5128121;28;20044;-63
2022/06/15 04:17:52;;;;;;;1.80;0.95;;;;;;;21.39;41.09;101922.16;5113932;28;20031;-63
2022/06/15 04:20:32;;;;;;;1.48;1.10;;;;;;;21.43;41.10;101932.50;5108503;28;20117;-64
2022/06/15 04:23:01;;;;;;;1.98;1.10;;;;;;;21.42;41.17;101936.22;5112194;28;20032;-63
2022/06/15 04:25:28;;;;;;;1.90;1.00;;;;;;;21.42;40.99;101930.81;5128898;28;20039;-62
2022/06/15 04:27:54;;;;;;;1.85;0.93;;;;;;;21.41;41.31;101929.13;5128681;28;20031;-64
2022/06/15 04:30:19;;;;;;;1.48;1.00;;;;;;;21.40;41.00;101932.81;5128786;28;20038;-64
2022/06/15 04:32:44;;;;;;;1.98;1.33;;;;;;;21.41;40.99;101931.84;5128445;28;20051;-64
2022/06/15 04:35:10;;;;;;;1.25;0.80;;;;;;;21.41;41.33;101928.28;5128583;28;20043;-64
2022/06/15 04:37:37;;;;;;;1.00;0.90;;;;;;;21.38;41.38;101924.03;5128038;28;20139;-64
2022/06/15 04:40:04;;;;;;;1.52;0.90;;;;;;;21.34;40.91;101917.25;5128578;28;20116;-63
2022/06/15 04:42:29;;;;;;;1.92;0.98;;;;;;;21.39;40.99;101923.00;5127383;28;20547;-63
2022/06/15 04:44:54;;;;;;;2.72;0.88;;;;;;;21.39;41.31;101923.00;5122936;28;20046;-63
2022/06/15 04:47:20;;;;;;;1.45;1.10;;;;;;;21.35;41.09;101920.78;5107902;28;20522;-64
2022/06/15 04:49:45;;;;;;;2.30;1.10;;;;;;;21.39;41.31;101917.59;5107763;28;20023;-64
2022/06/15 04:52:10;;;;;;;2.38;1.10;;;;;;;21.39;40.93;101928.44;5107055;28;20024;-64
2022/06/15 04:54:35;;;;;;;2.92;1.10;;;;;;;21.38;41.46;101931.31;5107046;28;20028;-63
2022/06/15 04:57:01;;;;;;;2.03;0.98;;;;;;;21.38;41.09;101934.00;5107177;28;20032;-64
2022/06/15 04:59:26;;;;;;;1.38;0.90;;;;;;;21.36;41.05;101923.31;5112764;28;20027;-63
2022/06/15 05:01:51;;;;;;;1.35;1.08;;;;;;;21.38;41.47;101934.00;5127894;28;20046;-63
2022/06/15 05:04:16;;;;;;;2.55;1.10;;;;;;;21.37;41.26;101927.75;5108645;28;20019;-63
2022/06/15 05:06:42;;;;;;;1.67;1.08;;;;;;;21.31;41.83;101922.09;5124268;28;20020;-63
2022/06/15 05:09:10;;;;;;;1.23;1.10;;;;;;;21.37;41.26;101929.63;5127754;28;20383;-62
2022/06/15 05:11:35;;;;;;;1.92;1.20;;;;;;;21.37;41.44;101935.03;5110712;28;20469;-63
2022/06/15 05:14:02;;;;;;;2.03;1.10;;;;;;;21.30;41.32;101923.09;5107043;28;20054;-63
2022/06/15 05:16:28;;;;;;;1.80;1.40;;;;;;;21.37;41.56;101929.63;5106980;28;20035;-64
2022/06/15 05:18:53;;;;;;;1.85;1.27;;;;;;;21.29;41.42;101922.25;5107353;28;20244;-63
2022/06/15 05:21:19;;;;;;;3.55;1.20;;;;;;;21.38;41.53;101928.59;5106545;28;20031;-63
2022/06/15 05:23:44;;;;;;;2.58;1.10;;;;;;;21.36;41.33;101928.72;5107013;28;20042;-64
2022/06/15 05:26:10;;;;;;;1.50;1.10;;;;;;;21.38;41.38;101934.00;5107058;28;20027;-63
2022/06/15 05:28:35;;;;;;;1.77;1.27;;;;;;;21.32;41.48;101921.09;5107015;28;20036;-63
2022/06/15 05:31:20;;;;;;;2.92;1.13;;;;;;;21.37;41.77;101935.03;5088735;28;20024;-63
2022/06/15 05:33:46;;;;;;;2.40;1.60;;;;;;;21.35;41.71;101924.34;5106237;28;20468;-63
2022/06/15 05:36:14;;;;;;;2.35;1.20;;;;;;;21.36;41.84;101919.78;5106490;28;20032;-64
2022/06/15 05:38:40;;;;;;;1.85;1.10;;;;;;;21.36;41.84;101926.03;5106828;28;20087;-64
2022/06/15 05:41:05;;;;;;;2.63;1.35;;;;;;;21.35;41.97;101924.34;5106549;28;20032;-64
2022/06/15 05:43:32;;;;;;;3.33;1.20;;;;;;;21.36;41.78;101933.31;5106140;28;20032;-64
2022/06/15 05:45:57;;;;;;;2.95;1.08;;;;;;;21.35;41.73;101927.03;5119571;28;20050;-64
2022/06/15 05:48:22;;;;;;;2.05;1.15;;;;;;;21.33;41.85;101937.19;5126868;28;20023;-64
2022/06/15 05:50:47;;;;;;;2.15;1.25;;;;;;;21.36;41.95;101925.19;5126833;28;20076;-61
2022/06/15 05:53:13;;;;;;;2.33;1.20;;;;;;;21.35;41.95;101924.34;5126103;28;20027;-64
2022/06/15 05:55:38;;;;;;;3.00;1.60;;;;;;;21.36;41.90;101934.16;5127221;28;20027;-64
2022/06/15 05:58:03;;;;;;;2.35;1.27;;;;;;;21.35;41.89;101932.47;5126631;28;20111;-64
2022/06/15 06:00:29;;;;;;;3.35;1.88;;;;;;;21.34;41.91;101927.22;5126860;28;20026;-64
2022/06/15 06:02:54;;;;;;;1.95;1.10;;;;;;;21.36;42.04;101930.59;5126543;28;20488;-63
2022/06/15 06:05:20;;;;;;;3.75;1.40;;;;;;;21.35;42.01;101928.91;5126802;28;20016;-64
2022/06/15 06:07:46;;;;;;;6.75;1.90;;;;;;;21.35;41.78;101931.63;5126153;28;20026;-64
2022/06/15 06:10:11;;;;;;;2.35;1.00;;;;;;;21.35;42.24;101929.75;5122194;28;20035;-63
2022/06/15 06:12:37;;;;;;;2.33;1.20;;;;;;;21.34;42.11;101922.66;5087797;28;20028;-64
2022/06/15 06:15:03;;;;;;;2.15;0.95;;;;;;;21.35;42.11;101923.50;5106241;28;20024;-64
2022/06/15 06:17:28;;;;;;;3.17;1.17;;;;;;;21.33;41.86;101920.97;5106156;28;20442;-63
2022/06/15 06:19:54;;;;;;;1.98;1.35;;;;;;;21.35;42.18;101920.78;5106157;28;20044;-64
2022/06/15 06:22:19;;;;;;;2.58;1.40;;;;;;;21.35;42.39;101918.09;5105311;28;20035;-64
2022/06/15 06:24:44;;;;;;;3.20;1.48;;;;;;;21.35;41.98;101923.50;5105798;28;20020;-64
2022/06/15 06:27:14;;;;;;;2.53;1.20;;;;;;;21.14;42.15;101892.22;5105708;28;20031;-64
2022/06/15 06:29:39;;;;;;;2.78;1.00;;;;;;;21.36;42.29;101925.19;5105891;28;20034;-64
2022/06/15 06:32:05;;;;;;;1.92;1.30;;;;;;;21.35;42.18;101923.50;5105590;28;20122;-63
2022/06/15 06:34:31;;;;;;;3.25;1.50;;;;;;;21.35;42.22;101924.34;5105408;28;20020;-64
2022/06/15 06:36:57;;;;;;;4.07;1.75;;;;;;;21.35;42.18;101924.34;5087114;28;20031;-64
2022/06/15 06:39:25;;;;;;;1.77;0.93;;;;;;;21.34;42.05;101919.94;5105563;28;20020;-64
2022/06/15 06:41:51;;;;;;;1.95;1.10;;;;;;;21.36;42.48;101934.16;5086854;28;20027;-63
2022/06/15 06:44:16;;;;;;;2.22;1.25;;;;;;;21.37;42.44;101937.72;5105616;28;20031;-62
2022/06/15 06:46:44;;;;;;;1.88;1.17;;;;;;;21.37;42.38;101940.44;5105681;28;20032;-62
2022/06/15 06:49:10;;;;;;;1.92;1.20;;;;;;;21.37;42.23;101945.84;5105651;28;20032;-62
2022/06/15 06:51:37;;;;;;;2.00;1.10;;;;;;;21.30;42.44;101926.66;5086455;28;20024;-62
2022/06/15 06:54:04;;;;;;;2.42;1.25;;;;;;;21.36;42.28;101941.41;5105271;28;20027;-62
2022/06/15 06:56:29;;;;;;;1.83;1.20;;;;;;;21.37;42.38;101937.72;5087214;28;20061;-63
2022/06/15 06:58:54;;;;;;;2.40;1.15;;;;;;;21.38;42.46;101944.81;5105524;28;20031;-63
2022/06/15 07:01:20;;;;;;;2.83;1.30;;;;;;;21.34;42.43;101929.94;5104643;28;20028;-63
2022/06/15 07:03:45;;;;;;;3.17;1.25;;;;;;;21.38;42.41;101942.13;5105401;28;20141;-63
2022/06/15 07:06:10;;;;;;;4.10;1.55;;;;;;;21.40;42.47;101945.50;5105288;28;20047;-62
2022/06/15 07:08:38;;;;;;;3.17;1.48;;;;;;;21.40;42.64;101950.91;5104658;28;20080;-63
2022/06/15 07:11:15;;;;;;;4.43;1.52;;;;;;;21.40;42.76;101948.22;5117152;28;20027;-62
2022/06/15 07:13:41;;;;;;;2.92;1.20;;;;;;;21.40;42.65;101957.16;5125162;28;20020;-63
2022/06/15 07:16:08;;;;;;;2.53;1.27;;;;;;;21.41;42.74;101950.78;5106791;28;20092;-63
2022/06/15 07:18:34;;;;;;;4.25;1.50;;;;;;;21.35;42.67;101937.88;5088224;28;20020;-62
2022/06/15 07:21:07;;;;;;;2.55;1.30;;;;;;;21.42;42.76;101957.88;5109568;28;20114;-63
2022/06/15 07:23:32;;;;;;;2.28;1.10;;;;;;;21.43;43.01;101966.84;5108919;28;20028;-63
2022/06/15 07:26:02;;;;;;;3.55;1.80;;;;;;;21.34;42.59;101963.22;5109415;28;20028;-63
2022/06/15 07:28:28;;;;;;;3.63;1.35;;;;;;;21.43;42.49;101973.09;5109292;28;20020;-63
2022/06/15 07:30:53;;;;;;;4.03;1.67;;;;;;;21.43;42.89;101958.72;5109156;28;20047;-63
2022/06/15 07:33:19;;;;;;;3.10;1.27;;;;;;;21.44;42.94;101965.81;5108898;28;20057;-63
2022/06/15 07:35:44;;;;;;;4.22;1.73;;;;;;;21.39;42.76;101951.94;5108980;28;20039;-63
2022/06/15 07:38:10;;;;;;;2.45;1.40;;;;;;;21.42;42.93;101957.03;5108346;28;20031;-62
2022/06/15 07:40:35;;;;;;;3.00;1.10;;;;;;;21.46;42.72;101961.13;5108889;28;20043;-63
2022/06/15 07:43:00;;;;;;;2.03;1.08;;;;;;;21.48;42.66;101966.34;5108396;28;20050;-63
2022/06/15 07:45:26;;;;;;;2.63;1.20;;;;;;;21.49;42.77;101973.47;5109074;28;20028;-64
2022/06/15 07:50:37;;;;;;;2.50;1.35;;;;;;;21.49;42.85;101968.88;5108972;28;20023;-63
2022/06/15 07:53:05;;;;;;;2.70;1.10;;;;;;;21.52;43.33;101970.44;5108171;28;20039;-63
2022/06/15 07:55:33;;;;;;;3.20;1.43;;;;;;;21.52;42.69;101971.28;5108707;28;20022;-63
2022/06/15 07:58:00;;;;;;;4.05;1.40;;;;;;;21.53;42.82;101964.84;5108795;28;20024;-63
2022/06/15 08:00:26;;;;;;;2.80;1.23;;;;;;;21.56;43.25;101966.41;5108537;28;20024;-64
2022/06/15 08:02:51;;;;;;;2.78;1.30;;;;;;;21.55;43.40;101959.31;5108546;28;20035;-63
2022/06/15 08:05:17;;;;;;;2.40;1.10;;;;;;;21.60;43.43;101963.22;5108517;28;20012;-63
2022/06/15 08:07:44;;;;;;;2.67;1.48;;;;;;;21.61;43.17;101964.06;5108050;28;20027;-63
2022/06/15 08:10:12;;;;;;;3.05;1.75;;;;;;;21.63;43.34;101962.06;5094639;28;20075;-63
2022/06/15 08:12:37;;;;;;;3.03;1.25;;;;;;;21.65;43.72;101960.03;5128419;28;20043;-64
2022/06/15 08:15:04;;;;;;;2.38;1.35;;;;;;;21.68;43.17;101962.41;5116609;28;20031;-63
2022/06/15 08:17:33;;;;;;;2.83;1.30;;;;;;;21.70;43.06;101960.38;5108350;28;20547;-63
2022/06/15 08:20:23;;;;;;;3.33;1.40;;;;;;;21.73;42.96;101956.50;5090348;28;20026;-64
2022/06/15 08:22:51;;;;;;;2.72;1.30;;;;;;;21.71;43.20;101952.13;5097486;28;20036;-64
2022/06/15 08:25:21;;;;;;;2.60;1.10;;;;;;;21.74;43.45;101960.91;5108145;28;20016;-64
2022/06/15 08:27:47;;;;;;;3.13;1.20;;;;;;;21.68;43.30;101949.72;5090103;28;20024;-63
2022/06/15 08:30:13;;;;;;;3.05;1.48;;;;;;;21.76;43.06;101959.75;5106698;28;20365;-63
2022/06/15 08:32:39;;;;;;;2.38;1.40;;;;;;;21.77;43.25;101961.44;5108163;28;20028;-64
2022/06/15 08:35:05;;;;;;;2.20;1.15;;;;;;;21.79;43.14;101954.03;5107920;28;20028;-63
2022/06/15 08:37:30;;;;;;;4.35;1.73;;;;;;;21.78;43.32;101951.44;5107446;28;20101;-63
2022/06/15 08:39:55;;;;;;;2.63;1.33;;;;;;;21.81;42.94;101954.69;5108024;28;20023;-63
2022/06/15 08:42:27;;;;;;;2.25;1.20;;;;;;;21.66;42.82;101932.81;5107194;28;20509;-64
2022/06/15 08:45:14;;;;;;;2.15;1.38;;;;;;;21.83;42.99;101955.34;5108015;28;20519;-63
2022/06/15 08:47:47;;;;;;;1.90;1.17;;;;;;;21.84;43.03;101956.25;5090119;28;20083;-64
2022/06/15 08:50:35;;;;;;;2.85;1.30;;;;;;;21.83;42.91;101943.69;5089562;28;20024;-64
2022/06/15 08:53:08;;;;;;;2.58;0.90;;;;;;;21.84;43.03;101957.09;5107355;28;20081;-64
2022/06/15 08:55:44;;;;;;;3.72;1.35;;;;;;;21.84;43.04;101957.09;5089163;28;20040;-63
2022/06/15 08:58:31;;;;;;;3.13;1.45;;;;;;;21.79;42.55;101951.31;5107554;28;20028;-63
2022/06/15 09:01:20;;;;;;;3.08;1.17;;;;;;;21.85;42.85;101958.78;5090622;28;20039;-65
2022/06/15 09:03:51;;;;;;;;;;;;;;;21.86;42.58;101957.75;5107525;28;20016;-64
2022/06/15 09:06:27;;;;;;;2.42;1.40;;;;;;;21.85;42.58;101947.09;5072291;28;19908;-63
2022/06/15 09:09:17;;;;;;;3.05;1.25;;;;;;;21.85;43.05;101947.94;5089272;28;20043;-63
2022/06/15 09:11:46;;;;;;;3.25;1.15;;;;;;;21.87;42.69;101953.19;5105899;28;20030;-63
2022/06/15 09:14:27;;;;;;;2.58;1.08;;;;;;;21.87;42.94;101950.47;5109198;28;20727;-63
2022/06/15 09:16:59;;;;;;;2.10;0.98;;;;;;;21.88;42.84;101955.75;5127777;28;20055;-64
2022/06/15 09:19:55;;;;;;;3.78;1.17;;;;;;;21.88;42.70;101963.03;5109561;28;20064;-63
2022/06/15 09:22:24;;;;;;;3.42;1.70;;;;;;;21.88;42.63;101966.56;5107381;28;20040;-64
2022/06/15 09:24:53;;;;;;;3.88;1.40;;;;;;;21.88;43.02;101969.28;5109197;28;20096;-63
2022/06/15 09:27:25;;;;;;;3.10;1.23;;;;;;;21.89;42.84;101970.13;5109060;28;20456;-63
2022/06/15 09:29:59;;;;;;;2.70;1.17;;;;;;;21.90;42.72;101969.09;5109092;28;20051;-63
2022/06/15 09:32:30;;;;;;;2.97;1.30;;;;;;;21.91;43.15;101973.50;5108825;28;20024;-64
2022/06/15 09:35:18;;;;;;;2.45;1.10;;;;;;;21.91;43.14;101965.38;5109417;28;20102;-63
2022/06/15 09:37:51;;;;;;;2.90;1.50;;;;;;;21.91;43.12;101960.81;5122103;28;20039;-63
2022/06/15 09:40:16;;;;;;;1.95;0.98;;;;;;;21.91;43.25;101959.97;5106767;28;20077;-63
2022/06/15 09:43:01;;;;;;;2.20;1.20;;;;;;;21.92;43.14;101962.53;5105586;28;20040;-63
2022/06/15 09:45:33;;;;;;;2.85;1.35;;;;;;;21.92;43.35;101959.81;5088577;28;20024;-62
2022/06/15 09:48:21;;;;;;;3.55;1.17;;;;;;;21.94;43.35;101956.94;5106668;28;20019;-63
2022/06/15 09:50:56;;;;;;;2.80;1.40;;;;;;;21.89;43.01;101946.59;5088372;28;20062;-64
2022/06/15 09:53:34;;;;;;;3.47;1.00;;;;;;;21.94;43.04;101946.97;5087855;28;20127;-63
2022/06/15 09:56:06;;;;;;;1.60;1.25;;;;;;;21.95;43.24;101948.66;5106365;28;20043;-64
2022/06/15 09:58:37;;;;;;;1.98;0.90;;;;;;;21.96;43.08;101944.06;5088483;28;20035;-63
2022/06/15 10:01:03;;;;;;;2.30;1.05;;;;;;;21.96;43.09;101944.94;5088229;28;20032;-63
2022/06/15 10:03:31;;;;;;;0.93;0.80;;;;;;;21.94;43.22;101936.13;5095008;28;20038;-63
2022/06/15 10:06:01;;;;;;;1.58;1.00;;;;;;;21.96;43.14;101936.81;5126672;28;20031;-63
2022/06/15 10:08:27;;;;;;;1.98;1.10;;;;;;;22.01;43.38;101938.19;5107938;28;20035;-62
2022/06/15 10:10:59;;;;;;;2.75;1.20;;;;;;;22.00;43.31;101934.59;5116547;28;20035;-63
2022/06/15 10:13:36;;;;;;;2.13;0.90;;;;;;;22.01;43.29;101930.91;5088587;28;20047;-64
2022/06/15 10:16:02;;;;;;;2.80;1.30;;;;;;;22.02;43.13;101927.19;5087920;28;20024;-64
2022/06/15 10:18:31;;;;;;;3.30;1.15;;;;;;;22.02;43.12;101919.06;5087852;28;20097;-63
2022/06/15 10:21:14;;;;;;;2.83;1.30;;;;;;;22.04;43.32;101918.88;5106073;28;20043;-63
2022/06/15 10:24:09;;;;;;;2.72;1.00;;;;;;;22.05;43.24;101924.16;5105618;28;20023;-63
2022/06/15 10:26:37;;;;;;;1.88;1.10;;;;;;;22.06;43.35;101916.88;5087775;28;20027;-64
2022/06/15 10:29:15;;;;;;;1.90;0.90;;;;;;;22.07;43.35;101918.56;5106135;28;20054;-64
2022/06/15 10:32:00;;;;;;;1.60;0.95;;;;;;;22.08;43.37;101922.97;5105913;28;20027;-64
2022/06/15 10:34:31;;;;;;;1.73;0.90;;;;;;;22.09;43.38;101921.94;5116679;28;20057;-63
2022/06/15 10:36:59;;;;;;;1.70;1.00;;;;;;;22.04;43.52;101906.19;5107512;28;20035;-63
2022/06/15 10:39:28;;;;;;;2.15;1.00;;;;;;;22.10;43.12;101907.41;5126311;28;20102;-64
2022/06/15 10:41:59;;;;;;;1.75;0.77;;;;;;;22.09;43.23;101906.56;5107167;28;20047;-64
2022/06/15 10:44:29;;;;;;;1.45;1.00;;;;;;;22.12;43.40;101906.25;5107920;28;20111;-64
2022/06/15 10:46:59;;;;;;;2.15;1.10;;;;;;;22.14;43.28;101904.22;5107865;28;20054;-64
2022/06/15 10:49:26;;;;;;;1.58;1.30;;;;;;;22.15;43.04;101903.22;5107745;28;20038;-64
2022/06/15 10:51:52;;;;;;;1.30;0.73;;;;;;;22.10;42.98;101889.28;5107101;28;20396;-63
2022/06/15 10:54:22;;;;;;;1.05;0.80;;;;;;;22.17;42.98;101901.19;5089795;28;20026;-64
2022/06/15 11:02:42;;;;;;;1.60;0.70;;;;;;;22.21;43.24;101901.69;5089852;28;20034;-64
2022/06/15 11:05:22;;;;;;;1.30;0.95;;;;;;;21.93;43.01;101842.38;5105164;28;20040;-64
2022/06/15 11:07:58;;;;;;;1.67;0.85;;;;;;;22.23;43.10;101896.13;5070141;28;20035;-63
2022/06/15 11:10:40;;;;;;;1.27;0.90;;;;;;;22.25;43.14;101894.94;5111639;28;20024;-64
2022/06/15 11:13:22;;;;;;;1.80;1.27;;;;;;;22.27;43.07;101892.91;5125291;28;20022;-64
2022/06/15 11:18:37;;;;;;;1.70;0.77;;;;;;;22.25;43.19;101892.22;5125642;28;20039;-64
2022/06/15 11:21:20;;;;;;;1.33;0.70;;;;;;;22.32;43.33;101898.66;5125729;28;20019;-64
2022/06/15 11:24:01;;;;;;;2.20;1.00;;;;;;;22.35;43.40;101895.63;5091968;28;20047;-63
2022/06/15 11:26:54;;;;;;;1.13;0.70;;;;;;;22.36;43.08;101896.47;5087013;28;20164;-63
2022/06/15 11:29:39;;;;;;;1.05;0.80;;;;;;;22.39;43.26;101897.00;5105096;28;20020;-63
2022/06/15 11:32:23;;;;;;;1.88;0.77;;;;;;;22.40;43.07;101901.41;5086769;28;20087;-63
2022/06/15 11:35:07;;;;;;;1.42;0.82;;;;;;;22.41;43.00;101897.66;5104695;28;20035;-63
2022/06/15 11:37:57;;;;;;;1.70;1.00;;;;;;;22.41;43.01;101892.25;5104370;28;20028;-64
2022/06/15 11:40:42;;;;;;;1.77;0.85;;;;;;;22.42;43.05;101890.38;5105146;28;20039;-64
2022/06/15 11:43:15;;;;;;;1.48;0.98;;;;;;;22.41;43.44;101884.13;5086354;28;20063;-63
2022/06/15 11:46:19;;;;;;;3.83;1.02;;;;;;;22.42;43.17;101898.50;5086999;28;20031;-64
2022/06/15 11:48:59;;;;;;;1.58;0.80;;;;;;;22.43;43.42;101897.50;5084665;28;20040;-64
2022/06/15 11:51:37;;;;;;;0.82;0.63;;;;;;;22.43;43.26;101894.81;5104913;28;20020;-64
2022/06/15 11:54:32;;;;;;;1.98;0.90;;;;;;;22.43;43.55;101887.53;5104349;28;20131;-64
2022/06/15 11:57:04;;;;;;;1.48;0.82;;;;;;;22.44;43.50;101882.94;5086850;28;20026;-64